Time;durP1;ratioP1;P1;durP2;ratioP2;P2;SDS_P1;SDS_P2;PMS_P1;PMS_P2;Temp;Humidity;BMP_temperature;BMP_pressure;BME280_temperature;BME280_humidity;BME280_pressure;Samples;Min_cycle;Max_cycle;Signal;HPM_P1;HPM_P2
2021/10/31 00:01:43;;;;;;;13.10;9.47;;;;;;;;;;4974342;28;20508;-50
2021/10/31 00:04:09;;;;;;;11.13;8.90;;;;;;;;;;4974642;28;20405;-49
2021/10/31 00:06:35;;;;;;;11.80;9.50;;;;;;;;;;4974640;28;20409;-51
2021/10/31 00:09:06;;;;;;;15.57;9.13;;;;;;;;;;4974646;28;20399;-48
2021/10/31 00:11:32;;;;;;;13.30;10.53;;;;;;;;;;4974647;28;20521;-50
2021/10/31 00:13:58;;;;;;;10.97;9.70;;;;;;;;;;4974356;28;20516;-52
2021/10/31 00:16:24;;;;;;;12.70;10.60;;;;;;;;;;4974457;28;20470;-48
2021/10/31 00:18:50;;;;;;;10.60;9.47;;;;;;;;;;4974420;28;20412;-48
2021/10/31 00:21:16;;;;;;;10.77;9.60;;;;;;;;;;4973938;28;20465;-49
2021/10/31 00:23:42;;;;;;;13.20;10.20;;;;;;;;;;4974280;28;20810;-49
2021/10/31 00:26:08;;;;;;;11.90;9.67;;;;;;;;;;4974240;28;20442;-48
2021/10/31 00:28:34;;;;;;;13.53;10.10;;;;;;;;;;4974249;28;20883;-49
2021/10/31 00:31:00;;;;;;;11.47;9.70;;;;;;;;;;4973871;28;20538;-49
2021/10/31 00:33:26;;;;;;;13.83;9.70;;;;;;;;;;4974151;28;20936;-50
2021/10/31 00:35:52;;;;;;;11.80;10.60;;;;;;;;;;4974082;28;20440;-48
2021/10/31 00:38:18;;;;;;;14.53;10.00;;;;;;;;;;4974517;28;20468;-49
2021/10/31 00:40:45;;;;;;;12.73;10.77;;;;;;;;;;4973480;28;20504;-49
2021/10/31 00:43:11;;;;;;;13.60;11.10;;;;;;;;;;4973950;28;20873;-49
2021/10/31 00:45:37;;;;;;;12.83;11.50;;;;;;;;;;4973900;28;20405;-49
2021/10/31 00:48:03;;;;;;;18.97;11.97;;;;;;;;;;4973877;28;20790;-49
2021/10/31 00:50:29;;;;;;;14.10;11.20;;;;;;;;;;4973503;28;20435;-48
2021/10/31 00:52:55;;;;;;;14.80;12.07;;;;;;;;;;4973836;28;20444;-49
2021/10/31 00:55:21;;;;;;;16.30;12.70;;;;;;;;;;4973650;28;20409;-49
2021/10/31 00:57:47;;;;;;;14.40;11.00;;;;;;;;;;4973700;28;20432;-49
2021/10/31 01:00:13;;;;;;;13.03;10.90;;;;;;;;;;4973144;28;20770;-49
2021/10/31 01:02:40;;;;;;;13.27;11.87;;;;;;;;;;4973103;28;20960;-49
2021/10/31 01:05:08;;;;;;;17.13;11.20;;;;;;;;;;4973615;28;20424;-49
2021/10/31 01:07:47;;;;;;;13.67;10.77;;;;;;;;;;4973650;28;20397;-48
2021/10/31 01:10:29;;;;;;;14.60;11.67;;;;;;;;;;4973142;28;20447;-51
2021/10/31 01:12:55;;;;;;;15.50;11.47;;;;;;;;;;4973345;28;20401;-48
2021/10/31 01:15:33;;;;;;;14.60;11.67;;;;;;;;;;4973891;28;20735;-49
2021/10/31 01:18:18;;;;;;;16.30;11.70;;;;;;;;;;4973354;28;20488;-49
2021/10/31 01:20:49;;;;;;;15.57;12.93;;;;;;;;;;4972998;28;20433;-48
2021/10/31 01:23:37;;;;;;;15.37;11.50;;;;;;;;;;4973364;28;20440;-48
2021/10/31 01:26:32;;;;;;;13.03;11.57;;;;;;;;;;4973308;28;20902;-48
2021/10/31 01:29:04;;;;;;;15.50;12.23;;;;;;;;;;4971139;28;20647;-48
2021/10/31 01:31:49;;;;;;;17.63;11.07;;;;;;;;;;4973099;28;20429;-47
2021/10/31 01:34:31;;;;;;;16.43;12.20;;;;;;;;;;4973946;28;20448;-51
2021/10/31 01:37:03;;;;;;;15.60;10.90;;;;;;;;;;4973078;28;20409;-51
2021/10/31 01:39:39;;;;;;;14.90;12.23;;;;;;;;;;4973122;28;20429;-52
2021/10/31 01:42:05;;;;;;;14.90;12.17;;;;;;;;;;4972684;28;20857;-50
2021/10/31 01:44:50;;;;;;;12.90;10.47;;;;;;;;;;4973082;28;20410;-52
2021/10/31 01:47:25;;;;;;;20.90;12.13;;;;;;;;;;4973057;28;20405;-50
2021/10/31 01:50:00;;;;;;;22.23;11.47;;;;;;;;;;4973252;28;20488;-51
2021/10/31 01:52:31;;;;;;;14.67;10.53;;;;;;;;;;4972761;28;20432;-52
2021/10/31 01:55:02;;;;;;;12.93;10.97;;;;;;;;;;4973090;28;20401;-52
2021/10/31 01:57:28;;;;;;;18.00;10.80;;;;;;;;;;4973408;28;20496;-52
2021/10/31 01:59:58;;;;;;;14.87;11.13;;;;;;;;;;4972786;28;20408;-52
2021/10/31 02:02:25;;;;;;;18.47;11.27;;;;;;;;;;4972063;28;20484;-51
2021/10/31 02:04:52;;;;;;;16.67;11.23;;;;;;;;;;4972508;28;20488;-51
2021/10/31 02:07:19;;;;;;;14.50;11.20;;;;;;;;;;4973218;28;20728;-52
2021/10/31 02:09:45;;;;;;;14.07;10.77;;;;;;;;;;4972804;28;20459;-50
2021/10/31 02:12:16;;;;;;;16.20;11.47;;;;;;;;;;4972894;28;20429;-50
2021/10/31 02:14:42;;;;;;;15.87;10.73;;;;;;;;;;4976644;28;20440;-53
2021/10/31 02:17:08;;;;;;;19.67;11.47;;;;;;;;;;4976655;28;20496;-51
2021/10/31 02:19:39;;;;;;;15.50;10.47;;;;;;;;;;4976570;28;20412;-51
2021/10/31 02:22:05;;;;;;;13.70;10.07;;;;;;;;;;4976212;28;20460;-52
2021/10/31 02:24:31;;;;;;;20.40;11.00;;;;;;;;;;4976532;28;20414;-52
2021/10/31 02:26:57;;;;;;;13.10;10.17;;;;;;;;;;4976392;28;20760;-52
2021/10/31 02:29:23;;;;;;;17.57;11.70;;;;;;;;;;4976417;28;20408;-51
2021/10/31 02:31:49;;;;;;;16.60;10.87;;;;;;;;;;4976088;28;20428;-52
2021/10/31 02:34:15;;;;;;;18.33;10.07;;;;;;;;;;4976349;28;20409;-51
2021/10/31 02:36:41;;;;;;;15.60;10.93;;;;;;;;;;4976319;28;20408;-52
2021/10/31 02:39:08;;;;;;;15.40;10.43;;;;;;;;;;4976161;28;20889;-52
2021/10/31 02:41:35;;;;;;;15.83;12.10;;;;;;;;;;4975757;28;20871;-51
2021/10/31 02:44:02;;;;;;;16.00;10.77;;;;;;;;;;4976139;28;20405;-52
2021/10/31 02:46:31;;;;;;;17.20;11.23;;;;;;;;;;4976416;28;20400;-52
2021/10/31 02:48:57;;;;;;;15.63;11.37;;;;;;;;;;4976105;28;20821;-52
2021/10/31 02:51:30;;;;;;;18.00;10.83;;;;;;;;;;4975720;28;20519;-52
2021/10/31 02:53:58;;;;;;;16.07;10.03;;;;;;;;;;4975955;28;20957;-49
2021/10/31 02:56:42;;;;;;;16.30;10.13;;;;;;;;;;4975907;28;20405;-51
2021/10/31 02:59:19;;;;;;;14.73;10.70;;;;;;;;;;4975837;28;20897;-50
2021/10/31 03:01:47;;;;;;;11.50;9.30;;;;;;;;;;4975558;28;20452;-52
2021/10/31 03:04:13;;;;;;;16.30;10.87;;;;;;;;;;4975814;28;20448;-52
2021/10/31 03:06:39;;;;;;;17.50;10.13;;;;;;;;;;4975680;28;20905;-52
2021/10/31 03:09:05;;;;;;;14.60;10.27;;;;;;;;;;4975643;28;20411;-48
2021/10/31 03:11:31;;;;;;;14.77;10.03;;;;;;;;;;4975317;28;20436;-50
2021/10/31 03:13:57;;;;;;;14.73;10.10;;;;;;;;;;4975628;28;20437;-52
2021/10/31 03:16:23;;;;;;;22.87;11.00;;;;;;;;;;4975667;28;20413;-52
2021/10/31 03:18:49;;;;;;;20.00;10.73;;;;;;;;;;4975510;28;20417;-51
2021/10/31 03:21:15;;;;;;;19.30;10.53;;;;;;;;;;4975113;28;20464;-52
2021/10/31 03:23:41;;;;;;;15.53;10.80;;;;;;;;;;4974794;28;20402;-51
2021/10/31 03:26:07;;;;;;;18.00;11.00;;;;;;;;;;4975160;28;20432;-53
2021/10/31 03:28:33;;;;;;;19.43;11.37;;;;;;;;;;4975346;28;20401;-52
2021/10/31 03:30:59;;;;;;;14.90;11.03;;;;;;;;;;4974966;28;20928;-52
2021/10/31 03:33:25;;;;;;;14.20;10.57;;;;;;;;;;4975259;28;20393;-50
2021/10/31 03:35:51;;;;;;;18.83;11.40;;;;;;;;;;4975202;28;20405;-51
2021/10/31 03:38:18;;;;;;;16.60;11.47;;;;;;;;;;4975182;28;20749;-52
2021/10/31 03:40:44;;;;;;;17.63;11.40;;;;;;;;;;4974797;28;20425;-51
2021/10/31 03:43:10;;;;;;;13.30;9.90;;;;;;;;;;4975058;28;20466;-52
2021/10/31 03:45:38;;;;;;;15.03;10.60;;;;;;;;;;4975074;28;20956;-51
2021/10/31 03:48:04;;;;;;;19.33;11.23;;;;;;;;;;4974978;28;20475;-52
2021/10/31 03:50:31;;;;;;;19.33;12.47;;;;;;;;;;4974583;28;20441;-52
2021/10/31 03:52:57;;;;;;;19.83;13.03;;;;;;;;;;4974924;28;20405;-50
2021/10/31 03:55:23;;;;;;;21.00;12.40;;;;;;;;;;4974848;28;20440;-51
2021/10/31 03:57:50;;;;;;;26.33;13.43;;;;;;;;;;4974908;28;20436;-51
2021/10/31 04:00:16;;;;;;;19.70;14.20;;;;;;;;;;4974493;28;20409;-51
2021/10/31 04:02:42;;;;;;;25.07;15.37;;;;;;;;;;4974631;28;20463;-50
2021/10/31 04:05:09;;;;;;;21.17;14.00;;;;;;;;;;4974730;28;20921;-50
2021/10/31 04:07:35;;;;;;;27.47;15.57;;;;;;;;;;4974671;28;20397;-50
2021/10/31 04:10:01;;;;;;;28.07;16.30;;;;;;;;;;4974441;28;20409;-50
2021/10/31 04:12:27;;;;;;;26.43;15.60;;;;;;;;;;4974357;28;20487;-50
2021/10/31 04:14:53;;;;;;;23.60;14.63;;;;;;;;;;4974416;28;20519;-49
2021/10/31 04:17:19;;;;;;;29.47;16.97;;;;;;;;;;4974364;28;20405;-51
2021/10/31 04:19:45;;;;;;;23.80;16.30;;;;;;;;;;4974589;28;20435;-51
2021/10/31 04:22:11;;;;;;;22.20;14.23;;;;;;;;;;4974282;28;20512;-51
2021/10/31 04:24:37;;;;;;;21.03;14.00;;;;;;;;;;4974328;28;20895;-49
2021/10/31 04:27:03;;;;;;;22.60;14.63;;;;;;;;;;4974322;28;20781;-51
2021/10/31 04:29:30;;;;;;;25.97;15.23;;;;;;;;;;4974212;28;20806;-52
2021/10/31 04:31:56;;;;;;;26.23;14.77;;;;;;;;;;4973763;28;20516;-51
2021/10/31 04:34:23;;;;;;;21.70;11.93;;;;;;;;;;4974231;28;20437;-49
2021/10/31 04:36:50;;;;;;;21.80;13.87;;;;;;;;;;4974067;28;20492;-51
2021/10/31 04:39:17;;;;;;;19.57;14.03;;;;;;;;;;4973946;28;20405;-51
2021/10/31 04:41:45;;;;;;;20.47;13.50;;;;;;;;;;4973688;28;20465;-52
2021/10/31 04:44:11;;;;;;;19.87;14.20;;;;;;;;;;4974023;28;20846;-51
2021/10/31 04:46:39;;;;;;;21.37;13.53;;;;;;;;;;4973869;28;20452;-51
2021/10/31 04:49:05;;;;;;;19.07;12.43;;;;;;;;;;4972575;28;20476;-51
2021/10/31 04:51:31;;;;;;;21.07;13.83;;;;;;;;;;4973603;28;20429;-51
2021/10/31 04:53:57;;;;;;;21.73;12.60;;;;;;;;;;4973769;28;20885;-52
2021/10/31 04:56:23;;;;;;;18.17;11.90;;;;;;;;;;4973789;28;20416;-52
2021/10/31 04:58:53;;;;;;;18.50;13.60;;;;;;;;;;4973781;28;20410;-52
2021/10/31 05:01:20;;;;;;;22.37;14.47;;;;;;;;;;4973255;28;20472;-52
2021/10/31 05:03:46;;;;;;;23.37;14.07;;;;;;;;;;4973752;28;20484;-52
2021/10/31 05:06:12;;;;;;;27.70;16.40;;;;;;;;;;4973656;28;20420;-53
2021/10/31 05:08:38;;;;;;;24.47;15.20;;;;;;;;;;4974009;28;20405;-52
2021/10/31 05:11:05;;;;;;;27.00;15.00;;;;;;;;;;4973193;28;20432;-51
2021/10/31 05:13:31;;;;;;;23.27;14.93;;;;;;;;;;4973371;28;20436;-50
2021/10/31 05:15:57;;;;;;;22.20;13.30;;;;;;;;;;4973419;28;20409;-52
2021/10/31 05:18:23;;;;;;;18.70;12.70;;;;;;;;;;4973470;28;20459;-51
2021/10/31 05:20:49;;;;;;;20.83;12.37;;;;;;;;;;4973035;28;20428;-50
2021/10/31 05:23:15;;;;;;;20.87;13.50;;;;;;;;;;4973234;28;20614;-49
2021/10/31 05:25:41;;;;;;;17.53;12.07;;;;;;;;;;4973350;28;20837;-50
2021/10/31 05:28:07;;;;;;;23.53;11.70;;;;;;;;;;4973223;28;20398;-51
2021/10/31 05:30:33;;;;;;;18.60;11.73;;;;;;;;;;4973029;28;20492;-52
2021/10/31 05:32:59;;;;;;;20.00;11.80;;;;;;;;;;4973253;28;20401;-51
2021/10/31 05:35:25;;;;;;;17.77;12.00;;;;;;;;;;4973225;28;20439;-52
2021/10/31 05:37:57;;;;;;;18.10;12.30;;;;;;;;;;4973179;28;20485;-52
2021/10/31 05:40:23;;;;;;;14.30;10.33;;;;;;;;;;4972872;28;20444;-51
2021/10/31 05:42:49;;;;;;;16.83;10.60;;;;;;;;;;4973012;28;20453;-52
2021/10/31 05:45:15;;;;;;;16.83;10.93;;;;;;;;;;4973205;28;20492;-52
2021/10/31 05:47:42;;;;;;;18.53;10.30;;;;;;;;;;4972546;28;20441;-51
2021/10/31 05:50:10;;;;;;;17.00;10.53;;;;;;;;;;4972832;28;20401;-50
2021/10/31 05:52:36;;;;;;;13.97;9.77;;;;;;;;;;4972944;28;20989;-51
2021/10/31 05:55:03;;;;;;;16.50;10.50;;;;;;;;;;4973058;28;20402;-52
2021/10/31 05:57:29;;;;;;;16.60;10.40;;;;;;;;;;4972960;28;20507;-51
2021/10/31 05:59:55;;;;;;;11.27;8.80;;;;;;;;;;4972922;28;20489;-51
2021/10/31 06:02:45;;;;;;;16.57;9.83;;;;;;;;;;4972584;28;20465;-51
2021/10/31 06:05:12;;;;;;;14.80;9.80;;;;;;;;;;4972948;28;20419;-52
2021/10/31 06:07:38;;;;;;;15.63;9.57;;;;;;;;;;4972934;28;20397;-51
2021/10/31 06:10:05;;;;;;;14.60;10.40;;;;;;;;;;4973042;28;20793;-50
2021/10/31 06:12:31;;;;;;;16.93;10.53;;;;;;;;;;4975272;28;20541;-49
2021/10/31 06:14:57;;;;;;;12.83;8.93;;;;;;;;;;4972728;28;20954;-51
2021/10/31 06:17:23;;;;;;;17.07;10.53;;;;;;;;;;4972683;28;20462;-52
2021/10/31 06:19:49;;;;;;;16.10;11.60;;;;;;;;;;4973933;28;20905;-48
2021/10/31 06:22:15;;;;;;;18.80;10.60;;;;;;;;;;4972440;28;20464;-49
2021/10/31 06:24:41;;;;;;;17.63;9.80;;;;;;;;;;4973006;28;20448;-49
2021/10/31 06:27:07;;;;;;;12.50;10.00;;;;;;;;;;4972650;28;20532;-49
2021/10/31 06:29:33;;;;;;;15.20;9.63;;;;;;;;;;4972640;28;20484;-51
2021/10/31 06:31:59;;;;;;;18.00;9.90;;;;;;;;;;4972659;28;20425;-50
2021/10/31 06:34:25;;;;;;;16.03;10.23;;;;;;;;;;4973234;28;20495;-53
2021/10/31 06:36:51;;;;;;;15.10;9.40;;;;;;;;;;4972601;28;20405;-51
2021/10/31 06:39:17;;;;;;;11.90;9.80;;;;;;;;;;4971998;28;20405;-50
2021/10/31 06:41:43;;;;;;;14.97;9.33;;;;;;;;;;4970372;28;20463;-50
2021/10/31 06:44:09;;;;;;;13.93;8.93;;;;;;;;;;4971612;28;20397;-51
2021/10/31 06:46:35;;;;;;;13.30;9.77;;;;;;;;;;4972208;28;20918;-52
2021/10/31 06:49:03;;;;;;;15.33;10.70;;;;;;;;;;4972309;28;20764;-52
2021/10/31 06:51:29;;;;;;;19.13;10.37;;;;;;;;;;4972078;28;20855;-50
2021/10/31 06:53:55;;;;;;;18.27;11.67;;;;;;;;;;4972401;28;20728;-51
2021/10/31 06:56:21;;;;;;;15.17;10.83;;;;;;;;;;4972434;28;20948;-50
2021/10/31 06:58:47;;;;;;;26.10;12.13;;;;;;;;;;4972414;28;20428;-51
2021/10/31 07:01:13;;;;;;;18.57;11.30;;;;;;;;;;4975389;28;20449;-50
2021/10/31 07:03:41;;;;;;;13.67;10.23;;;;;;;;;;4975869;28;20448;-50
2021/10/31 07:06:09;;;;;;;18.33;12.10;;;;;;;;;;4975702;28;20405;-51
2021/10/31 07:08:35;;;;;;;13.57;9.40;;;;;;;;;;4975766;28;20402;-51
2021/10/31 07:11:01;;;;;;;14.33;9.40;;;;;;;;;;4975453;28;20800;-49
2021/10/31 07:13:27;;;;;;;13.33;9.77;;;;;;;;;;4975429;28;20426;-49
2021/10/31 07:15:53;;;;;;;10.27;8.40;;;;;;;;;;4975600;28;20409;-50
2021/10/31 07:18:18;;;;;;;11.80;8.77;;;;;;;;;;4975519;28;20405;-50
2021/10/31 07:20:44;;;;;;;13.90;7.60;;;;;;;;;;4975131;28;20428;-52
2021/10/31 07:23:10;;;;;;;9.00;7.13;;;;;;;;;;4975455;28;20555;-52
2021/10/31 07:25:36;;;;;;;9.27;7.80;;;;;;;;;;4975403;28;20443;-51
2021/10/31 07:28:02;;;;;;;10.77;7.20;;;;;;;;;;4975310;28;20405;-51
2021/10/31 07:30:29;;;;;;;7.80;6.50;;;;;;;;;;4974990;28;20397;-51
2021/10/31 07:32:59;;;;;;;7.50;6.60;;;;;;;;;;4976088;28;20416;-52
2021/10/31 07:35:26;;;;;;;8.80;6.80;;;;;;;;;;4975040;28;20417;-52
2021/10/31 07:37:52;;;;;;;9.90;7.80;;;;;;;;;;4975202;28;20406;-52
2021/10/31 07:40:18;;;;;;;6.30;5.63;;;;;;;;;;4974830;28;20419;-50
2021/10/31 07:42:44;;;;;;;6.20;5.33;;;;;;;;;;4974987;28;20438;-51
2021/10/31 07:45:10;;;;;;;7.20;5.67;;;;;;;;;;4975071;28;20406;-50
2021/10/31 07:47:36;;;;;;;7.93;5.63;;;;;;;;;;4975121;28;20438;-52
2021/10/31 07:50:03;;;;;;;6.90;5.07;;;;;;;;;;4975011;28;20768;-51
2021/10/31 07:52:29;;;;;;;5.20;4.63;;;;;;;;;;4974678;28;20956;-52
2021/10/31 07:54:56;;;;;;;5.60;5.00;;;;;;;;;;4974965;28;20433;-52
2021/10/31 07:57:24;;;;;;;5.53;4.90;;;;;;;;;;4974827;28;20801;-51
2021/10/31 07:59:51;;;;;;;6.53;5.00;;;;;;;;;;4974812;28;20411;-51
2021/10/31 08:02:17;;;;;;;9.03;4.80;;;;;;;;;;4974455;28;20466;-52
2021/10/31 08:04:43;;;;;;;5.60;3.83;;;;;;;;;;4974707;28;20406;-51
2021/10/31 08:07:09;;;;;;;3.97;3.60;;;;;;;;;;4974704;28;20406;-50
2021/10/31 08:09:35;;;;;;;4.27;3.87;;;;;;;;;;4974393;28;20888;-51
2021/10/31 08:12:01;;;;;;;3.83;3.53;;;;;;;;;;4974037;28;20525;-51
2021/10/31 08:14:28;;;;;;;3.80;3.30;;;;;;;;;;4974485;28;20429;-52
2021/10/31 08:16:54;;;;;;;4.80;3.57;;;;;;;;;;4974537;28;20797;-52
2021/10/31 08:19:24;;;;;;;3.93;3.57;;;;;;;;;;4974380;28;20406;-52
2021/10/31 08:21:50;;;;;;;3.20;3.00;;;;;;;;;;4974092;28;20873;-51
2021/10/31 08:24:16;;;;;;;3.43;3.23;;;;;;;;;;4974276;28;20778;-51
2021/10/31 08:26:42;;;;;;;3.20;3.00;;;;;;;;;;4974344;28;20490;-51
2021/10/31 08:29:10;;;;;;;3.50;3.30;;;;;;;;;;4974243;28;20939;-51
2021/10/31 08:31:40;;;;;;;2.60;2.40;;;;;;;;;;4973943;28;20461;-51
2021/10/31 08:34:06;;;;;;;3.10;2.83;;;;;;;;;;4974215;28;20434;-53
2021/10/31 08:36:32;;;;;;;5.10;2.83;;;;;;;;;;4974165;28;20929;-52
2021/10/31 08:38:58;;;;;;;2.50;2.30;;;;;;;;;;4974040;28;20495;-51
2021/10/31 08:41:25;;;;;;;2.80;2.57;;;;;;;;;;4973860;28;20820;-51
2021/10/31 08:43:53;;;;;;;2.83;2.50;;;;;;;;;;4974003;28;20965;-52
2021/10/31 08:46:19;;;;;;;2.70;2.50;;;;;;;;;;4974341;28;20492;-51
2021/10/31 08:48:45;;;;;;;2.30;2.20;;;;;;;;;;4974191;28;20431;-52
2021/10/31 08:51:11;;;;;;;2.37;2.27;;;;;;;;;;4973544;28;20521;-52
2021/10/31 08:53:38;;;;;;;2.43;2.33;;;;;;;;;;4972661;28;20409;-52
2021/10/31 08:56:05;;;;;;;2.47;2.10;;;;;;;;;;4973545;28;20408;-53
2021/10/31 08:58:31;;;;;;;2.57;2.20;;;;;;;;;;4973914;28;20405;-52
2021/10/31 09:00:58;;;;;;;2.50;2.00;;;;;;;;;;4973482;28;20399;-52
2021/10/31 09:03:24;;;;;;;2.13;1.93;;;;;;;;;;4973509;28;20431;-52
2021/10/31 09:05:50;;;;;;;1.83;1.73;;;;;;;;;;4973575;28;20772;-51
2021/10/31 09:08:16;;;;;;;2.20;1.83;;;;;;;;;;4973567;28;20406;-53
2021/10/31 09:10:42;;;;;;;2.17;2.00;;;;;;;;;;4973178;28;20404;-53
2021/10/31 09:13:08;;;;;;;2.90;2.07;;;;;;;;;;4973407;28;20431;-53
2021/10/31 09:15:35;;;;;;;4.10;2.30;;;;;;;;;;4973499;28;20785;-51
2021/10/31 09:18:02;;;;;;;1.97;1.87;;;;;;;;;;4973424;28;20412;-53
2021/10/31 09:20:29;;;;;;;13.40;10.23;;;;;;;;;;4972978;28;20387;-53
2021/10/31 09:22:55;;;;;;;3.00;2.70;;;;;;;;;;4972548;28;20459;-53
2021/10/31 09:25:22;;;;;;;2.00;1.80;;;;;;;;;;4973609;28;20892;-53
2021/10/31 09:27:48;;;;;;;8.27;7.43;;;;;;;;;;4973415;28;20744;-53
2021/10/31 09:30:15;;;;;;;2.20;2.00;;;;;;;;;;4973038;28;20404;-53
2021/10/31 09:32:46;;;;;;;2.27;2.07;;;;;;;;;;4973318;28;20413;-53
2021/10/31 09:35:15;;;;;;;2.17;1.97;;;;;;;;;;4973046;28;20385;-52
2021/10/31 09:37:41;;;;;;;2.20;2.10;;;;;;;;;;4973211;28;20839;-51
2021/10/31 09:40:08;;;;;;;2.20;2.10;;;;;;;;;;4973011;28;20466;-51
2021/10/31 09:42:34;;;;;;;3.27;2.13;;;;;;;;;;4973041;28;20494;-52
2021/10/31 09:45:00;;;;;;;2.60;2.07;;;;;;;;;;4972973;28;20873;-50
2021/10/31 09:47:26;;;;;;;7.43;3.90;;;;;;;;;;4973009;28;20765;-52
2021/10/31 09:49:53;;;;;;;1.80;1.70;;;;;;;;;;4972868;28;20395;-52
2021/10/31 09:52:20;;;;;;;2.00;1.90;;;;;;;;;;4973077;28;20498;-52
2021/10/31 09:54:47;;;;;;;5.27;2.97;;;;;;;;;;4973130;28;20404;-52
2021/10/31 09:57:13;;;;;;;2.43;2.23;;;;;;;;;;4973058;28;20422;-52
2021/10/31 09:59:43;;;;;;;4.33;2.80;;;;;;;;;;4972943;28;20411;-52
2021/10/31 10:02:13;;;;;;;3.37;2.57;;;;;;;;;;4972449;28;20546;-50
2021/10/31 10:04:42;;;;;;;2.70;2.50;;;;;;;;;;4972965;28;20892;-50
2021/10/31 10:07:09;;;;;;;3.20;2.77;;;;;;;;;;4972955;28;20409;-51
2021/10/31 10:09:35;;;;;;;4.97;2.77;;;;;;;;;;4972809;28;20879;-53
2021/10/31 10:12:13;;;;;;;2.90;2.70;;;;;;;;;;4972701;28;20521;-53
2021/10/31 10:14:39;;;;;;;3.37;2.97;;;;;;;;;;4972655;28;20425;-51
2021/10/31 10:17:07;;;;;;;3.20;3.00;;;;;;;;;;4972877;28;20411;-53
2021/10/31 10:19:37;;;;;;;2.70;2.50;;;;;;;;;;4972788;28;20502;-53
2021/10/31 10:22:11;;;;;;;3.10;2.90;;;;;;;;;;4972519;28;20893;-53
2021/10/31 10:24:39;;;;;;;3.10;2.90;;;;;;;;;;4972716;28;20412;-53
2021/10/31 10:27:06;;;;;;;4.63;2.60;;;;;;;;;;4972809;28;20404;-53
2021/10/31 10:29:35;;;;;;;2.40;2.20;;;;;;;;;;4972685;28;20410;-53
2021/10/31 10:32:03;;;;;;;5.13;2.17;;;;;;;;;;4972462;28;20508;-51
2021/10/31 10:34:33;;;;;;;2.77;2.20;;;;;;;;;;4975193;28;20463;-53
2021/10/31 10:37:01;;;;;;;2.10;2.00;;;;;;;;;;4976453;28;20470;-53
2021/10/31 10:39:32;;;;;;;2.53;1.80;;;;;;;;;;4976306;28;20424;-53
2021/10/31 10:41:58;;;;;;;4.50;2.10;;;;;;;;;;4975886;28;20488;-52
2021/10/31 10:44:29;;;;;;;5.60;2.80;;;;;;;;;;4976164;28;20463;-52
2021/10/31 10:47:04;;;;;;;2.27;2.07;;;;;;;;;;4976224;28;20404;-53
2021/10/31 10:49:32;;;;;;;3.33;2.37;;;;;;;;;;4976484;28;20406;-52
2021/10/31 10:52:19;;;;;;;3.10;2.30;;;;;;;;;;4975900;28;20432;-53
2021/10/31 10:54:50;;;;;;;2.40;2.20;;;;;;;;;;4976093;28;20408;-52
2021/10/31 10:57:16;;;;;;;2.10;1.90;;;;;;;;;;4975989;28;20432;-53
2021/10/31 10:59:42;;;;;;;2.13;2.03;;;;;;;;;;4975792;28;20416;-51
2021/10/31 11:02:09;;;;;;;2.37;2.17;;;;;;;;;;4975576;28;20464;-53
2021/10/31 11:04:36;;;;;;;3.80;2.10;;;;;;;;;;4975963;28;20470;-53
2021/10/31 11:07:03;;;;;;;2.30;2.10;;;;;;;;;;4975813;28;20407;-53
2021/10/31 11:09:42;;;;;;;1.97;1.87;;;;;;;;;;4975890;28;20412;-50
2021/10/31 11:12:28;;;;;;;2.33;2.23;;;;;;;;;;4975467;28;20432;-52
2021/10/31 11:14:55;;;;;;;2.83;2.63;;;;;;;;;;4975642;28;20468;-52
2021/10/31 11:17:21;;;;;;;2.23;2.13;;;;;;;;;;4976101;28;20810;-53
2021/10/31 11:19:47;;;;;;;2.50;2.30;;;;;;;;;;4975587;28;20411;-54
2021/10/31 11:22:14;;;;;;;2.50;2.30;;;;;;;;;;4975265;28;20976;-53
2021/10/31 11:24:40;;;;;;;2.00;1.90;;;;;;;;;;4975614;28;20959;-51
2021/10/31 11:27:09;;;;;;;2.13;2.00;;;;;;;;;;4975867;28;20405;-52
2021/10/31 11:29:35;;;;;;;2.60;2.33;;;;;;;;;;4975303;28;20469;-52
2021/10/31 11:32:02;;;;;;;2.47;1.80;;;;;;;;;;4975067;28;20438;-53
2021/10/31 11:34:28;;;;;;;2.00;1.90;;;;;;;;;;4975276;28;20901;-54
2021/10/31 11:36:55;;;;;;;2.27;2.07;;;;;;;;;;4975394;28;20492;-53
2021/10/31 11:39:21;;;;;;;4.03;2.17;;;;;;;;;;4975194;28;20405;-51
2021/10/31 11:41:48;;;;;;;1.87;1.77;;;;;;;;;;4974848;28;20464;-51
2021/10/31 11:44:14;;;;;;;1.70;1.60;;;;;;;;;;4975019;28;20407;-52
2021/10/31 11:46:40;;;;;;;2.67;2.07;;;;;;;;;;4974279;28;20413;-52
2021/10/31 11:49:06;;;;;;;2.27;1.80;;;;;;;;;;4975043;28;20490;-52
2021/10/31 11:51:43;;;;;;;2.10;1.90;;;;;;;;;;4974755;28;20792;-53
2021/10/31 11:54:11;;;;;;;5.33;2.00;;;;;;;;;;4974931;28;20415;-53
2021/10/31 11:56:43;;;;;;;3.40;2.20;;;;;;;;;;4975003;28;20404;-53
2021/10/31 11:59:17;;;;;;;2.90;2.10;;;;;;;;;;4974811;28;20409;-53
2021/10/31 12:01:56;;;;;;;2.20;2.10;;;;;;;;;;4974476;28;20941;-52
2021/10/31 12:04:37;;;;;;;2.30;2.20;;;;;;;;;;4974876;28;20507;-52
2021/10/31 12:07:10;;;;;;;1.97;1.87;;;;;;;;;;4974691;28;20432;-52
2021/10/31 12:09:36;;;;;;;2.00;1.90;;;;;;;;;;4974526;28;20399;-53
2021/10/31 12:12:02;;;;;;;1.80;1.70;;;;;;;;;;4974564;28;20434;-53
2021/10/31 12:14:41;;;;;;;2.40;2.20;;;;;;;;;;4974453;28;20461;-53
2021/10/31 12:17:07;;;;;;;2.13;1.90;;;;;;;;;;4974543;28;20408;-51
2021/10/31 12:19:33;;;;;;;2.73;2.20;;;;;;;;;;4974363;28;20411;-50
2021/10/31 12:22:10;;;;;;;2.10;2.00;;;;;;;;;;4974100;28;20965;-53
2021/10/31 12:24:38;;;;;;;2.03;1.80;;;;;;;;;;4974624;28;20412;-52
2021/10/31 12:27:14;;;;;;;2.20;2.10;;;;;;;;;;4974436;28;20410;-52
2021/10/31 12:29:43;;;;;;;2.30;2.10;;;;;;;;;;4974240;28;20404;-52
2021/10/31 12:32:17;;;;;;;2.37;2.00;;;;;;;;;;4972663;28;20422;-52
2021/10/31 12:34:44;;;;;;;2.30;2.13;;;;;;;;;;4974206;28;20411;-53
2021/10/31 12:37:23;;;;;;;1.80;1.70;;;;;;;;;;4974209;28;20413;-52
2021/10/31 12:39:55;;;;;;;2.10;2.00;;;;;;;;;;4974080;28;20414;-52
2021/10/31 12:42:33;;;;;;;2.10;2.00;;;;;;;;;;4973720;28;20467;-53
2021/10/31 12:45:01;;;;;;;2.80;2.03;;;;;;;;;;4974118;28;20876;-53
2021/10/31 12:47:36;;;;;;;2.67;2.10;;;;;;;;;;4973971;28;20405;-52
2021/10/31 12:50:08;;;;;;;2.27;2.07;;;;;;;;;;4973940;28;20406;-52
2021/10/31 12:52:34;;;;;;;2.40;1.80;;;;;;;;;;4973822;28;20522;-52
2021/10/31 12:55:02;;;;;;;2.40;2.20;;;;;;;;;;4972572;28;20407;-49
2021/10/31 12:57:28;;;;;;;2.20;2.00;;;;;;;;;;4953912;28;20448;-51
2021/10/31 12:59:56;;;;;;;2.40;2.20;;;;;;;;;;4954375;28;20407;-53
2021/10/31 13:02:25;;;;;;;2.73;2.23;;;;;;;;;;4958873;28;20472;-51
2021/10/31 13:04:53;;;;;;;2.20;2.10;;;;;;;;;;4988895;28;20473;-51
2021/10/31 13:07:19;;;;;;;2.40;2.30;;;;;;;;;;4954489;28;20504;-51
2021/10/31 13:09:46;;;;;;;2.33;2.13;;;;;;;;;;4951203;28;20402;-51
2021/10/31 13:12:22;;;;;;;2.90;2.27;;;;;;;;;;4953968;28;20811;-53
2021/10/31 13:14:48;;;;;;;3.07;2.30;;;;;;;;;;4966311;28;20463;-53
2021/10/31 13:17:15;;;;;;;3.53;2.47;;;;;;;;;;4973455;28;20466;-53
2021/10/31 13:19:41;;;;;;;2.07;1.97;;;;;;;;;;4972296;28;20409;-53
2021/10/31 13:22:16;;;;;;;2.30;2.20;;;;;;;;;;4973052;28;20461;-53
2021/10/31 13:24:46;;;;;;;2.40;2.20;;;;;;;;;;4973390;28;20397;-52
2021/10/31 13:27:17;;;;;;;2.40;2.20;;;;;;;;;;4961502;28;20411;-51
2021/10/31 13:29:44;;;;;;;2.30;2.20;;;;;;;;;;4974034;28;20461;-52
2021/10/31 13:32:11;;;;;;;2.10;2.00;;;;;;;;;;4975569;28;20525;-53
2021/10/31 13:34:41;;;;;;;3.37;2.53;;;;;;;;;;4993099;28;20415;-52
2021/10/31 13:37:08;;;;;;;2.40;2.20;;;;;;;;;;5008045;28;20406;-53
2021/10/31 13:39:34;;;;;;;2.30;2.10;;;;;;;;;;4991673;28;20416;-53
2021/10/31 13:42:00;;;;;;;2.30;2.10;;;;;;;;;;4991121;28;20969;-54
2021/10/31 13:44:27;;;;;;;2.47;2.30;;;;;;;;;;4990261;28;20785;-54
2021/10/31 13:47:01;;;;;;;2.30;2.20;;;;;;;;;;4977838;28;20439;-52
2021/10/31 13:49:30;;;;;;;4.10;2.03;;;;;;;;;;4990797;28;20469;-53
2021/10/31 13:51:57;;;;;;;2.70;2.40;;;;;;;;;;4992303;28;20968;-52
2021/10/31 13:54:24;;;;;;;3.20;2.37;;;;;;;;;;4988301;28;21221;-51
2021/10/31 13:56:50;;;;;;;2.13;2.03;;;;;;;;;;4976598;28;20449;-53
2021/10/31 13:59:17;;;;;;;1.80;1.70;;;;;;;;;;4966803;28;20532;-52
2021/10/31 14:01:44;;;;;;;1.90;1.80;;;;;;;;;;4974282;28;20450;-53
2021/10/31 14:04:16;;;;;;;2.00;1.90;;;;;;;;;;4975270;28;20437;-51
2021/10/31 14:06:43;;;;;;;2.20;2.10;;;;;;;;;;4972764;28;20410;-52
2021/10/31 14:09:10;;;;;;;1.90;1.80;;;;;;;;;;4979649;28;20934;-52
2021/10/31 14:11:52;;;;;;;4.27;2.10;;;;;;;;;;4977001;28;20430;-54
2021/10/31 14:14:28;;;;;;;1.60;1.50;;;;;;;;;;4976990;28;20439;-53
2021/10/31 14:16:54;;;;;;;1.70;1.60;;;;;;;;;;4977019;28;20428;-52
2021/10/31 14:19:20;;;;;;;2.13;2.03;;;;;;;;;;4970784;28;20456;-51
2021/10/31 14:22:02;;;;;;;2.90;1.80;;;;;;;;;;4966638;28;20456;-52
2021/10/31 14:24:28;;;;;;;4.13;1.90;;;;;;;;;;4968879;28;20805;-53
2021/10/31 14:26:54;;;;;;;2.30;2.07;;;;;;;;;;4961494;28;20816;-52
2021/10/31 14:29:27;;;;;;;1.87;1.77;;;;;;;;;;4956359;28;20406;-52
2021/10/31 14:31:54;;;;;;;6.53;1.77;;;;;;;;;;4966387;28;20444;-53
2021/10/31 14:34:23;;;;;;;1.70;1.60;;;;;;;;;;4969752;28;20413;-51
2021/10/31 14:36:49;;;;;;;1.73;1.63;;;;;;;;;;4959651;28;20428;-53